Time;durP1;ratioP1;P1;durP2;ratioP2;P2;SDS_P1;SDS_P2;PMS_P1;PMS_P2;Temp;Humidity;BMP_temperature;BMP_pressure;BME280_temperature;BME280_humidity;BME280_pressure;Samples;Min_cycle;Max_cycle;Signal;HPM_P1;HPM_P2
2023/10/04 00:01:21;;;;;;;0.80;0.50;;;;;;;13.24;100.00;101436.69;6038835;23;20413;-68
2023/10/04 00:03:50;;;;;;;0.80;0.50;;;;;;;13.14;100.00;101436.25;6039109;23;20405;-66
2023/10/04 00:06:20;;;;;;;0.80;0.50;;;;;;;13.01;100.00;101452.47;6039267;23;20378;-67
2023/10/04 00:08:49;;;;;;;0.80;0.50;;;;;;;12.98;100.00;101447.44;6039145;23;20398;-68
2023/10/04 00:11:18;;;;;;;0.80;0.50;;;;;;;12.95;100.00;101453.28;6038514;23;20413;-67
2023/10/04 00:13:46;;;;;;;0.80;0.50;;;;;;;12.95;100.00;101459.56;6038994;23;20397;-67
2023/10/04 00:16:17;;;;;;;0.80;0.40;;;;;;;12.89;100.00;101473.13;6038989;23;20393;-68
2023/10/04 00:18:46;;;;;;;0.80;0.40;;;;;;;12.90;100.00;101480.22;6039015;23;20475;-70
2023/10/04 00:21:16;;;;;;;0.80;0.50;;;;;;;12.98;100.00;101482.75;6037654;23;20428;-67
2023/10/04 00:23:45;;;;;;;0.80;0.43;;;;;;;12.95;100.00;101485.91;6038840;23;20393;-67
2023/10/04 00:26:14;;;;;;;0.80;0.40;;;;;;;12.88;100.00;101490.44;6039341;23;20378;-69
2023/10/04 00:28:44;;;;;;;0.90;0.70;;;;;;;12.84;100.00;101489.19;6037716;23;20482;-68
2023/10/04 00:31:14;;;;;;;0.80;0.50;;;;;;;12.74;100.00;101483.28;6039128;23;20677;-67
2023/10/04 00:33:45;;;;;;;1.03;0.87;;;;;;;12.70;100.00;101488.28;6038980;23;20473;-66
2023/10/04 00:36:20;;;;;;;0.80;0.50;;;;;;;12.60;100.00;101483.22;6038839;23;20448;-68
2023/10/04 00:38:50;;;;;;;0.80;0.50;;;;;;;12.65;100.00;101498.91;6040797;23;20441;-68
2023/10/04 00:41:20;;;;;;;0.80;0.50;;;;;;;12.74;100.00;101499.56;6040978;23;20413;-68
2023/10/04 00:43:50;;;;;;;0.80;0.47;;;;;;;12.78;100.00;101498.16;6040635;23;20862;-66
2023/10/04 00:46:20;;;;;;;0.80;0.40;;;;;;;12.82;100.00;101496.72;6039204;23;20417;-68
2023/10/04 00:48:54;;;;;;;0.80;0.50;;;;;;;12.89;100.00;101503.00;6040747;23;20378;-68
2023/10/04 00:51:23;;;;;;;0.80;0.50;;;;;;;12.89;100.00;101508.44;6040598;23;20416;-68
2023/10/04 00:53:53;;;;;;;0.80;0.50;;;;;;;12.76;100.00;101505.66;6039012;23;20415;-68
2023/10/04 00:56:22;;;;;;;1.27;1.17;;;;;;;12.64;100.00;101503.50;6038837;23;20917;-68
2023/10/04 00:58:53;;;;;;;0.80;0.50;;;;;;;12.54;100.00;101502.19;6040804;23;20394;-69
2023/10/04 01:01:22;;;;;;;3.07;2.77;;;;;;;12.44;100.00;101491.69;6038897;23;20443;-68
2023/10/04 01:03:55;;;;;;;0.80;0.40;;;;;;;12.34;100.00;101493.13;6040490;23;20412;-68
2023/10/04 01:06:25;;;;;;;0.80;0.50;;;;;;;12.16;100.00;101497.16;6040103;23;20374;-68
2023/10/04 01:08:55;;;;;;;0.80;0.50;;;;;;;12.29;100.00;101495.59;6040885;23;20398;-69
2023/10/04 01:11:24;;;;;;;0.80;0.50;;;;;;;12.26;100.00;101494.09;6086693;23;20823;-69
2023/10/04 01:14:06;;;;;;;0.80;0.40;;;;;;;12.28;100.00;101500.16;6040391;23;20417;-70
2023/10/04 01:16:41;;;;;;;0.80;0.50;;;;;;;12.26;100.00;101499.53;6039856;23;20842;-68
2023/10/04 01:19:14;;;;;;;0.80;0.50;;;;;;;12.16;100.00;101502.59;6040203;23;20377;-68
2023/10/04 01:21:42;;;;;;;0.80;0.50;;;;;;;12.17;100.00;101506.13;6062532;23;20460;-68
2023/10/04 01:24:13;;;;;;;0.80;0.50;;;;;;;12.15;100.00;101505.50;6062710;23;20397;-68
2023/10/04 01:26:42;;;;;;;0.80;0.50;;;;;;;12.12;100.00;101512.16;6038831;23;20473;-67
2023/10/04 01:29:12;;;;;;;0.80;0.50;;;;;;;12.07;100.00;101508.34;6041298;23;20411;-68
2023/10/04 01:31:43;;;;;;;0.80;0.47;;;;;;;12.07;100.00;101506.47;6041007;23;20456;-69
2023/10/04 01:34:13;;;;;;;0.80;0.50;;;;;;;11.99;100.00;101501.22;6041132;23;20452;-69
2023/10/04 01:36:42;;;;;;;0.80;0.50;;;;;;;12.14;100.00;101509.25;6041287;23;20370;-69
2023/10/04 01:39:18;;;;;;;0.80;0.50;;;;;;;12.10;100.00;101502.56;6063470;23;20393;-68
2023/10/04 01:41:49;;;;;;;0.80;0.57;;;;;;;12.08;100.00;101508.16;6039291;23;20443;-69
2023/10/04 01:44:17;;;;;;;0.80;0.50;;;;;;;12.08;100.00;101499.19;6040733;23;20684;-68
2023/10/04 01:46:46;;;;;;;0.80;0.40;;;;;;;12.08;100.00;101493.75;6041214;23;20750;-68
2023/10/04 01:49:15;;;;;;;0.80;0.50;;;;;;;12.05;100.00;101497.69;6042318;23;20378;-68
2023/10/04 01:51:44;;;;;;;0.80;0.50;;;;;;;12.09;100.00;101501.72;6063169;23;20945;-68
2023/10/04 01:54:18;;;;;;;0.80;0.50;;;;;;;12.13;100.00;101500.28;6041847;23;20425;-68
2023/10/04 01:56:47;;;;;;;0.80;0.50;;;;;;;12.14;100.00;101501.13;6042994;23;20769;-67
2023/10/04 01:59:17;;;;;;;1.43;0.80;;;;;;;12.15;100.00;101492.75;6043172;23;20352;-68
2023/10/04 02:01:46;;;;;;;2.80;2.03;;;;;;;12.13;100.00;101502.16;6038418;23;20429;-69
2023/10/04 02:04:15;;;;;;;0.80;0.50;;;;;;;12.17;100.00;101492.56;6038263;23;20974;-68
2023/10/04 02:06:43;;;;;;;0.80;0.50;;;;;;;12.10;100.00;101491.72;6038281;23;20409;-69
2023/10/04 02:09:12;;;;;;;0.80;0.47;;;;;;;12.09;100.00;101490.03;6038361;23;20405;-67
2023/10/04 02:11:43;;;;;;;0.80;0.50;;;;;;;12.04;100.00;101487.06;6038191;23;20429;-68
2023/10/04 02:14:12;;;;;;;0.80;0.60;;;;;;;11.98;100.00;101488.69;6039769;23;20424;-69
2023/10/04 02:16:41;;;;;;;0.80;0.50;;;;;;;11.96;100.00;101490.75;6039464;23;20397;-68
2023/10/04 02:19:12;;;;;;;0.80;0.50;;;;;;;11.98;100.00;101490.56;6062083;23;20415;-69
2023/10/04 02:21:40;;;;;;;0.80;0.50;;;;;;;11.93;100.00;101498.44;6039454;23;20533;-68
2023/10/04 02:24:10;;;;;;;0.80;0.50;;;;;;;11.97;100.00;101502.44;6039497;23;20378;-68
2023/10/04 02:26:41;;;;;;;0.80;0.50;;;;;;;12.04;100.00;101503.34;6039253;23;20390;-68
2023/10/04 02:29:12;;;;;;;0.90;0.60;;;;;;;12.06;100.00;101501.25;6037838;23;20401;-68
2023/10/04 02:31:41;;;;;;;0.80;0.50;;;;;;;12.10;100.00;101506.06;6039126;23;20417;-68
2023/10/04 02:34:11;;;;;;;0.80;0.50;;;;;;;12.19;100.00;101502.22;6037687;23;20436;-68
2023/10/04 02:36:39;;;;;;;0.80;0.50;;;;;;;12.16;100.00;101509.88;6037926;23;20445;-69
2023/10/04 02:39:11;;;;;;;0.80;0.50;;;;;;;12.25;100.00;101505.16;6038096;23;20476;-69
2023/10/04 02:41:41;;;;;;;0.80;0.50;;;;;;;12.24;100.00;101504.31;6037966;23;20429;-69
2023/10/04 02:44:12;;;;;;;0.80;0.47;;;;;;;12.19;100.00;101506.78;6039053;23;20374;-69
2023/10/04 02:46:44;;;;;;;0.80;0.40;;;;;;;12.24;100.00;101501.59;6039362;23;20719;-68
2023/10/04 02:49:13;;;;;;;0.80;0.50;;;;;;;12.22;100.00;101508.25;6039021;23;20389;-69
2023/10/04 02:51:44;;;;;;;0.80;0.40;;;;;;;12.14;100.00;101492.97;6037507;23;20512;-67
2023/10/04 02:54:16;;;;;;;0.83;0.67;;;;;;;12.08;100.00;101499.19;6037697;23;20443;-67
2023/10/04 02:56:48;;;;;;;0.80;0.50;;;;;;;12.05;100.00;101500.41;6037599;23;20406;-68
2023/10/04 02:59:18;;;;;;;0.80;0.50;;;;;;;12.01;100.00;101496.41;6061562;23;20433;-67
2023/10/04 03:01:48;;;;;;;0.80;0.50;;;;;;;11.95;100.00;101493.66;6037266;23;20464;-67
2023/10/04 03:04:18;;;;;;;0.80;0.60;;;;;;;11.86;100.00;101487.53;6037141;23;20452;-68
2023/10/04 03:06:48;;;;;;;0.80;0.50;;;;;;;11.88;100.00;101499.03;6061728;23;20817;-68
2023/10/04 03:09:16;;;;;;;0.80;0.50;;;;;;;11.86;100.00;101497.56;6038644;23;20405;-67
2023/10/04 03:11:46;;;;;;;0.80;0.50;;;;;;;11.86;100.00;101484.81;6062331;23;20489;-67
2023/10/04 03:14:16;;;;;;;1.00;0.80;;;;;;;11.91;100.00;101487.78;6062320;23;20815;-67
2023/10/04 03:16:47;;;;;;;0.80;0.50;;;;;;;11.98;100.00;101498.69;6085529;23;20401;-66
2023/10/04 03:19:16;;;;;;;0.93;0.83;;;;;;;11.87;100.00;101502.78;6061665;23;20405;-68
2023/10/04 03:21:46;;;;;;;1.30;1.20;;;;;;;11.90;100.00;101506.97;6039018;23;20456;-68
2023/10/04 03:24:18;;;;;;;0.80;0.50;;;;;;;11.85;100.00;101498.59;6085259;23;20380;-67
2023/10/04 03:26:50;;;;;;;0.80;0.50;;;;;;;11.85;100.00;101502.16;6038697;23;20425;-68
2023/10/04 03:29:22;;;;;;;1.17;0.70;;;;;;;11.89;100.00;101508.84;6061214;23;20815;-68
2023/10/04 03:31:51;;;;;;;0.90;0.70;;;;;;;11.89;100.00;101513.44;6038867;23;20416;-68
2023/10/04 03:34:22;;;;;;;0.80;0.50;;;;;;;11.85;100.00;101515.69;6037930;23;20536;-68
2023/10/04 03:36:53;;;;;;;0.90;0.60;;;;;;;11.86;100.00;101505.69;6037513;23;20410;-68
2023/10/04 03:39:28;;;;;;;0.80;0.50;;;;;;;11.91;100.00;101511.38;6062182;23;20405;-68
2023/10/04 03:42:00;;;;;;;0.80;0.50;;;;;;;11.90;100.00;101501.56;6037522;23;20439;-68
2023/10/04 03:44:31;;;;;;;0.80;0.50;;;;;;;11.95;100.00;101520.78;6062378;23;20496;-69
2023/10/04 03:47:01;;;;;;;0.80;0.50;;;;;;;11.96;100.00;101517.03;6062504;23;20409;-68
2023/10/04 03:49:30;;;;;;;0.80;0.47;;;;;;;11.93;100.00;101517.44;6062309;23;20413;-69
2023/10/04 03:51:58;;;;;;;0.80;0.50;;;;;;;11.93;100.00;101522.84;6040571;23;20887;-68
2023/10/04 03:54:28;;;;;;;0.80;0.50;;;;;;;11.87;100.00;101532.59;6040330;23;20482;-69
2023/10/04 03:56:57;;;;;;;0.90;0.60;;;;;;;11.94;100.00;101528.09;6038275;23;20443;-69
2023/10/04 03:59:26;;;;;;;0.80;0.47;;;;;;;11.93;100.00;101528.28;6040167;23;20377;-68
2023/10/04 04:01:57;;;;;;;0.80;0.40;;;;;;;11.95;100.00;101527.06;6039637;23;20452;-69
2023/10/04 04:04:26;;;;;;;0.90;0.53;;;;;;;11.93;100.00;101528.28;6040292;23;20637;-68
2023/10/04 04:06:55;;;;;;;0.80;0.50;;;;;;;11.88;100.00;101522.59;6038374;23;20429;-68
2023/10/04 04:09:24;;;;;;;0.80;0.50;;;;;;;11.91;100.00;101522.22;6039212;23;20424;-68
2023/10/04 04:11:56;;;;;;;0.80;0.60;;;;;;;11.88;100.00;101515.31;6039424;23;20448;-68
2023/10/04 04:14:25;;;;;;;0.80;0.50;;;;;;;11.86;100.00;101522.78;6042079;23;20398;-68
2023/10/04 04:16:55;;;;;;;0.80;0.50;;;;;;;11.90;100.00;101526.81;6040281;23;20401;-68
2023/10/04 04:19:26;;;;;;;0.80;0.50;;;;;;;11.88;100.00;101522.59;6041561;23;20668;-68
2023/10/04 04:21:57;;;;;;;0.80;0.50;;;;;;;11.89;100.00;101527.00;6063493;23;20440;-68
2023/10/04 04:24:27;;;;;;;0.80;0.40;;;;;;;11.87;100.00;101529.03;6039615;23;20459;-68
2023/10/04 04:26:58;;;;;;;0.80;0.50;;;;;;;11.97;100.00;101534.97;6039303;23;20408;-67
2023/10/04 04:29:28;;;;;;;1.17;1.07;;;;;;;11.98;100.00;101536.66;6039309;23;20951;-68
2023/10/04 04:31:58;;;;;;;0.80;0.50;;;;;;;11.99;100.00;101539.19;6038961;23;20441;-67
2023/10/04 04:34:29;;;;;;;0.93;0.80;;;;;;;11.91;100.00;101536.59;6062988;23;20953;-67
2023/10/04 04:36:59;;;;;;;0.80;0.50;;;;;;;11.95;100.00;101537.06;6039093;23;20500;-67
2023/10/04 04:39:28;;;;;;;0.80;0.50;;;;;;;11.97;100.00;101545.84;6040970;23;20906;-68
2023/10/04 04:41:59;;;;;;;0.80;0.50;;;;;;;11.95;100.00;101537.91;6038825;23;20418;-70
2023/10/04 04:44:38;;;;;;;3.37;0.70;;;;;;;11.94;100.00;101541.66;6038950;23;20469;-68
2023/10/04 04:47:07;;;;;;;0.80;0.50;;;;;;;11.90;100.00;101529.53;6039039;23;20455;-67
2023/10/04 04:49:37;;;;;;;1.00;0.80;;;;;;;12.02;100.00;101538.78;6062921;23;20423;-68
2023/10/04 04:52:09;;;;;;;1.30;0.90;;;;;;;11.95;100.00;101529.78;6040339;23;20419;-68
2023/10/04 04:54:38;;;;;;;0.80;0.47;;;;;;;11.94;100.00;101525.38;6062969;23;20523;-67
2023/10/04 04:57:07;;;;;;;0.80;0.50;;;;;;;11.89;100.00;101532.41;6040476;23;20378;-69
2023/10/04 04:59:37;;;;;;;0.80;0.50;;;;;;;11.85;100.00;101533.84;6040506;23;20421;-69
2023/10/04 05:02:06;;;;;;;0.80;0.50;;;;;;;11.79;100.00;101524.63;6062485;23;20429;-69
2023/10/04 05:04:36;;;;;;;1.00;0.90;;;;;;;11.92;100.00;101537.44;6038590;23;20464;-68
2023/10/04 05:07:09;;;;;;;0.80;0.40;;;;;;;11.94;100.00;101535.38;6040220;23;20352;-69
2023/10/04 05:09:38;;;;;;;0.80;0.50;;;;;;;12.02;100.00;101543.38;6040439;23;20378;-68
2023/10/04 05:12:06;;;;;;;0.80;0.50;;;;;;;11.95;100.00;101550.63;6038226;23;20429;-67
2023/10/04 05:14:36;;;;;;;0.80;0.50;;;;;;;11.96;100.00;101544.16;6040691;23;20727;-69
2023/10/04 05:17:05;;;;;;;0.80;0.50;;;;;;;12.00;100.00;101553.59;6040559;23;20469;-67
2023/10/04 05:19:34;;;;;;;1.37;1.27;;;;;;;12.01;100.00;101547.97;6040963;23;20854;-68
2023/10/04 05:22:05;;;;;;;0.90;0.80;;;;;;;11.97;100.00;101543.97;6044855;23;20414;-68
2023/10/04 05:24:34;;;;;;;0.80;0.50;;;;;;;12.04;100.00;101555.72;6044603;23;20374;-69
2023/10/04 05:27:04;;;;;;;0.80;0.40;;;;;;;12.07;100.00;101544.47;6044826;23;20461;-69
2023/10/04 05:29:33;;;;;;;0.80;0.50;;;;;;;12.16;100.00;101539.72;6044701;23;20374;-69
2023/10/04 05:32:02;;;;;;;0.80;0.50;;;;;;;12.16;100.00;101546.00;6045004;23;20409;-68
2023/10/04 05:34:31;;;;;;;0.83;0.67;;;;;;;12.16;100.00;101547.88;6044908;23;20417;-67
2023/10/04 05:37:00;;;;;;;0.80;0.60;;;;;;;12.19;100.00;101558.34;6044394;23;20421;-69
2023/10/04 05:39:32;;;;;;;0.80;0.50;;;;;;;12.22;100.00;101557.09;6043251;23;20937;-68
2023/10/04 05:42:01;;;;;;;0.80;0.50;;;;;;;12.26;100.00;101556.50;6045848;23;20731;-67
2023/10/04 05:44:30;;;;;;;0.80;0.50;;;;;;;12.32;100.00;101560.31;6048651;23;20378;-69
2023/10/04 05:46:58;;;;;;;0.80;0.50;;;;;;;12.30;100.00;101557.78;6048662;23;20378;-69
2023/10/04 05:49:27;;;;;;;0.80;0.50;;;;;;;12.35;100.00;101563.47;6048063;23;20382;-68
2023/10/04 05:51:58;;;;;;;0.80;0.50;;;;;;;12.40;100.00;101563.72;6048394;23;20754;-69
2023/10/04 05:54:26;;;;;;;0.80;0.40;;;;;;;12.44;100.00;101570.41;6045834;23;20400;-69
2023/10/04 05:56:57;;;;;;;0.80;0.40;;;;;;;12.52;100.00;101575.72;6044610;23;20397;-69
2023/10/04 05:59:26;;;;;;;0.80;0.50;;;;;;;12.57;100.00;101591.41;6043109;23;20378;-68
2023/10/04 06:01:55;;;;;;;0.80;0.50;;;;;;;12.61;100.00;101588.09;6043004;23;20413;-68
2023/10/04 06:04:24;;;;;;;0.80;0.50;;;;;;;12.73;100.00;101599.22;6039988;23;20437;-67
2023/10/04 06:06:54;;;;;;;0.80;0.50;;;;;;;12.69;100.00;101591.69;6039630;23;20441;-68
2023/10/04 06:09:29;;;;;;;0.80;0.50;;;;;;;12.77;100.00;101597.81;6039284;23;20392;-67
2023/10/04 06:12:01;;;;;;;0.80;0.40;;;;;;;12.82;100.00;101605.38;6039348;23;20439;-68
2023/10/04 06:14:30;;;;;;;0.80;0.50;;;;;;;12.92;100.00;101609.41;6039179;23;20377;-68
2023/10/04 06:16:59;;;;;;;0.80;0.40;;;;;;;12.94;100.00;101617.31;6039122;23;20789;-68
2023/10/04 06:19:28;;;;;;;0.80;0.50;;;;;;;13.10;100.00;101614.28;6039438;23;20407;-68
2023/10/04 06:21:59;;;;;;;0.80;0.50;;;;;;;13.14;100.00;101623.75;6039352;23;20912;-66
2023/10/04 06:24:27;;;;;;;0.80;0.50;;;;;;;13.11;100.00;101629.59;6061727;23;20410;-69
2023/10/04 06:26:58;;;;;;;0.80;0.40;;;;;;;13.13;100.00;101624.78;6039477;23;20436;-67
2023/10/04 06:29:27;;;;;;;2.40;2.20;;;;;;;13.25;100.00;101630.50;6039162;23;20394;-67
2023/10/04 06:31:56;;;;;;;1.50;0.80;;;;;;;13.30;100.00;101634.28;6039206;23;20405;-68
2023/10/04 06:34:25;;;;;;;0.80;0.40;;;;;;;13.35;100.00;101634.53;6039347;23;20566;-68
2023/10/04 06:36:53;;;;;;;0.90;0.80;;;;;;;13.49;99.20;101640.84;6038738;23;20417;-68
2023/10/04 06:39:22;;;;;;;1.10;0.67;;;;;;;13.62;98.43;101638.16;6039043;23;20404;-69
2023/10/04 06:41:52;;;;;;;1.47;1.03;;;;;;;13.63;97.70;101641.72;6039017;23;20484;-67
2023/10/04 06:44:22;;;;;;;0.80;0.50;;;;;;;13.68;97.93;101645.53;6039282;23;20444;-68
2023/10/04 06:46:52;;;;;;;0.80;0.50;;;;;;;13.83;96.57;101651.63;6039339;23;20458;-68
2023/10/04 06:49:21;;;;;;;0.80;0.47;;;;;;;14.03;95.84;101665.28;6038989;23;20833;-68
2023/10/04 06:51:49;;;;;;;0.80;0.50;;;;;;;14.04;94.63;101666.13;6039326;23;20913;-67
2023/10/04 06:54:18;;;;;;;0.80;0.50;;;;;;;14.30;94.33;101663.44;6038815;23;20496;-67
2023/10/04 06:56:49;;;;;;;0.80;0.40;;;;;;;14.52;92.69;101672.28;6039065;23;20400;-69
2023/10/04 06:59:17;;;;;;;0.80;0.47;;;;;;;14.30;92.45;101666.16;6039522;23;20385;-67
2023/10/04 07:01:48;;;;;;;0.80;0.50;;;;;;;14.26;92.93;101664.91;6038997;23;20473;-67
2023/10/04 07:04:16;;;;;;;0.80;0.40;;;;;;;14.26;93.28;101668.47;6039132;23;20492;-68
2023/10/04 07:06:45;;;;;;;0.80;0.53;;;;;;;14.43;93.09;101677.09;6038808;23;20364;-67
2023/10/04 07:09:14;;;;;;;0.80;0.40;;;;;;;14.28;93.40;101685.41;6039123;23;20835;-68
2023/10/04 07:11:43;;;;;;;0.80;0.50;;;;;;;14.19;94.05;101685.81;6039077;23;20580;-68
2023/10/04 07:14:12;;;;;;;0.90;0.67;;;;;;;14.19;94.44;101675.78;6038855;23;20716;-68
2023/10/04 07:16:42;;;;;;;1.00;0.77;;;;;;;14.25;93.69;101691.28;6038742;23;20420;-68
2023/10/04 07:19:14;;;;;;;0.80;0.40;;;;;;;14.23;93.90;101687.91;6038921;23;20384;-68
2023/10/04 07:21:43;;;;;;;0.80;0.50;;;;;;;14.36;93.30;101689.88;6038541;23;20398;-67
2023/10/04 07:24:12;;;;;;;0.80;0.40;;;;;;;14.50;92.03;101693.44;6038832;23;20389;-69
2023/10/04 07:26:41;;;;;;;0.80;0.50;;;;;;;14.38;92.11;101693.22;6038643;23;20364;-68
2023/10/04 07:29:09;;;;;;;0.80;0.40;;;;;;;14.50;92.28;101693.44;6038664;23;20400;-68
2023/10/04 07:31:38;;;;;;;0.80;0.40;;;;;;;14.76;91.61;101704.34;6038439;23;20418;-69
2023/10/04 07:34:07;;;;;;;0.80;0.40;;;;;;;14.79;90.09;101695.75;6038523;23;20377;-68
2023/10/04 07:36:37;;;;;;;0.80;0.50;;;;;;;14.71;90.54;101701.41;6039102;23;20399;-67
2023/10/04 07:39:06;;;;;;;0.90;0.50;;;;;;;14.73;91.27;101704.75;6039001;23;20393;-69
2023/10/04 07:41:37;;;;;;;0.80;0.40;;;;;;;14.78;91.36;101696.78;6037624;23;20482;-68
2023/10/04 07:44:06;;;;;;;0.80;0.60;;;;;;;14.56;91.00;101703.50;6061361;23;20406;-68
2023/10/04 07:46:35;;;;;;;1.00;0.60;;;;;;;14.61;91.39;101706.44;6038594;23;20465;-67
2023/10/04 07:49:03;;;;;;;0.80;0.50;;;;;;;14.57;90.89;101703.28;6038479;23;20995;-68
2023/10/04 07:51:32;;;;;;;0.80;0.50;;;;;;;14.47;91.72;101702.03;6038436;23;20448;-67
2023/10/04 07:54:04;;;;;;;0.80;0.50;;;;;;;14.61;91.03;101710.00;6038633;23;20448;-68
2023/10/04 07:56:34;;;;;;;0.90;0.60;;;;;;;14.75;91.18;101708.13;6038464;23;20391;-67
2023/10/04 07:59:02;;;;;;;0.80;0.50;;;;;;;14.68;89.99;101708.09;6038697;23;20485;-67
2023/10/04 08:01:31;;;;;;;0.90;0.70;;;;;;;14.94;89.77;101707.28;6038460;23;20981;-68
2023/10/04 08:04:00;;;;;;;1.10;0.80;;;;;;;15.15;88.71;101715.19;6038689;23;20376;-67
2023/10/04 08:06:29;;;;;;;0.80;0.40;;;;;;;15.23;88.60;101717.72;6038650;23;20365;-69
2023/10/04 08:08:58;;;;;;;0.80;0.40;;;;;;;15.34;88.23;101723.56;6038605;23;20380;-67
2023/10/04 08:11:28;;;;;;;0.80;0.50;;;;;;;15.20;87.89;101715.41;6038708;23;20512;-67
2023/10/04 08:13:57;;;;;;;0.90;0.50;;;;;;;15.46;86.68;101717.22;6038553;23;20348;-69
2023/10/04 08:16:27;;;;;;;0.80;0.40;;;;;;;15.86;85.70;101728.03;6038528;23;20406;-68
2023/10/04 08:18:56;;;;;;;0.80;0.40;;;;;;;15.86;84.68;101728.03;6038782;23;20384;-68
2023/10/04 08:21:25;;;;;;;0.80;0.50;;;;;;;15.99;83.89;101734.25;6038518;23;20439;-68
2023/10/04 08:23:54;;;;;;;0.80;0.40;;;;;;;15.77;84.35;101738.38;6038376;23;20822;-67
2023/10/04 08:26:23;;;;;;;0.80;0.50;;;;;;;15.82;84.53;101738.56;6038889;23;20366;-66
2023/10/04 08:28:53;;;;;;;2.07;1.43;;;;;;;16.02;84.86;101741.19;6038804;23;20416;-67
2023/10/04 08:31:22;;;;;;;0.80;0.50;;;;;;;15.96;83.20;101751.09;6039077;23;20387;-67
2023/10/04 08:33:51;;;;;;;0.80;0.50;;;;;;;15.83;84.63;101756.56;6042448;23;20459;-65
2023/10/04 08:36:21;;;;;;;0.90;0.50;;;;;;;15.78;84.36;101752.84;6045133;23;20396;-66
2023/10/04 08:38:49;;;;;;;0.80;0.43;;;;;;;15.74;85.73;101744.22;6041877;23;20707;-67
2023/10/04 08:41:18;;;;;;;2.50;2.40;;;;;;;15.76;85.18;101754.94;6039999;23;20442;-67
2023/10/04 08:43:47;;;;;;;0.80;0.60;;;;;;;15.91;84.17;101759.09;6040886;23;20348;-68
2023/10/04 08:46:20;;;;;;;1.77;0.90;;;;;;;15.77;84.46;101751.16;6041834;23;20421;-68
2023/10/04 08:48:53;;;;;;;0.80;0.40;;;;;;;15.69;84.95;101749.50;6040305;23;20469;-68
2023/10/04 08:51:34;;;;;;;0.80;0.50;;;;;;;15.74;84.27;101752.41;6040281;23;20728;-67
2023/10/04 08:54:12;;;;;;;0.80;0.43;;;;;;;15.90;84.21;101756.56;6039459;23;20355;-67
2023/10/04 08:56:47;;;;;;;0.80;0.40;;;;;;;16.09;83.25;101767.41;6039086;23;20751;-69
2023/10/04 08:59:18;;;;;;;0.80;0.40;;;;;;;16.15;82.38;101751.19;6040844;23;20697;-67
2023/10/04 09:01:50;;;;;;;1.00;0.60;;;;;;;16.10;82.44;101768.25;6042642;23;20384;-68
2023/10/04 09:04:24;;;;;;;0.90;0.70;;;;;;;16.06;81.48;101756.94;6043115;23;20386;-67
2023/10/04 09:06:53;;;;;;;0.90;0.60;;;;;;;16.21;80.67;101762.09;6042183;23;20913;-69
2023/10/04 09:09:22;;;;;;;0.80;0.40;;;;;;;16.40;81.14;101769.34;6041183;23;20749;-67
2023/10/04 09:11:52;;;;;;;0.80;0.40;;;;;;;16.39;79.55;101772.28;6062623;23;20433;-68
2023/10/04 09:14:21;;;;;;;0.80;0.40;;;;;;;16.37;79.98;101774.38;6040627;23;20421;-68
2023/10/04 09:17:06;;;;;;;0.80;0.40;;;;;;;16.29;80.06;101771.91;6039811;23;20392;-67
2023/10/04 09:19:35;;;;;;;0.80;0.40;;;;;;;16.13;81.05;101777.88;6040001;23;20373;-67
2023/10/04 09:22:09;;;;;;;1.00;0.50;;;;;;;16.16;80.43;101777.47;6040501;23;20382;-68
2023/10/04 09:24:54;;;;;;;0.80;0.50;;;;;;;16.14;80.84;101779.56;6128469;23;20419;-84
2023/10/04 09:27:25;;;;;;;0.80;0.40;;;;;;;16.52;79.79;101785.84;6112712;23;20428;-84
2023/10/04 09:29:54;;;;;;;0.80;0.50;;;;;;;16.49;79.01;101789.03;6141967;23;20400;-84
2023/10/04 09:32:43;;;;;;;0.80;0.40;;;;;;;16.48;78.24;101799.13;6144583;23;20373;-85
2023/10/04 09:35:12;;;;;;;0.80;0.50;;;;;;;16.57;78.31;101796.97;6146809;23;20378;-85
2023/10/04 09:37:44;;;;;;;0.80;0.50;;;;;;;16.98;76.43;101779.25;6141352;23;20517;-85
2023/10/04 09:40:17;;;;;;;0.80;0.40;;;;;;;16.99;76.46;101789.16;6141016;23;20423;-86
2023/10/04 09:42:49;;;;;;;0.80;0.40;;;;;;;17.09;76.91;101782.09;6144846;23;20360;-85
2023/10/04 09:45:20;;;;;;;1.40;0.73;;;;;;;16.88;77.31;101786.06;6138317;23;20378;-85
2023/10/04 09:47:53;;;;;;;0.80;0.50;;;;;;;16.85;79.11;101788.38;6140018;23;20408;-84
2023/10/04 09:50:25;;;;;;;0.90;0.50;;;;;;;17.05;77.20;101793.69;6142314;23;20430;-85
2023/10/04 09:52:54;;;;;;;0.90;0.60;;;;;;;16.70;77.21;101785.16;6144859;23;20384;-84
2023/10/04 09:55:26;;;;;;;0.80;0.40;;;;;;;16.78;76.40;101788.47;6136174;23;20377;-84
2023/10/04 09:57:58;;;;;;;1.27;0.50;;;;;;;16.58;76.25;101795.94;6135961;23;20190;-84
2023/10/04 10:00:29;;;;;;;0.80;0.40;;;;;;;16.67;76.90;101797.34;6140702;23;20439;-85
2023/10/04 10:03:04;;;;;;;0.90;0.50;;;;;;;16.76;76.91;101806.97;6145001;23;20371;-84
2023/10/04 10:05:34;;;;;;;0.80;0.50;;;;;;;16.83;75.68;101802.31;6149750;23;20403;-84
2023/10/04 10:08:06;;;;;;;0.90;0.80;;;;;;;17.01;75.17;101811.63;6152416;23;20370;-84
2023/10/04 10:10:37;;;;;;;0.80;0.40;;;;;;;17.19;74.81;101808.94;6150547;23;20448;-82
2023/10/04 10:13:07;;;;;;;0.80;0.40;;;;;;;17.02;72.34;101822.34;6149968;23;20376;-83
2023/10/04 10:15:40;;;;;;;0.80;0.40;;;;;;;16.90;73.55;101808.53;6146967;23;20371;-84
2023/10/04 10:18:18;;;;;;;0.80;0.40;;;;;;;17.01;72.21;101819.81;6120258;23;20453;-84
2023/10/04 10:20:47;;;;;;;0.90;0.60;;;;;;;17.17;71.55;101813.81;6148782;23;20397;-84
2023/10/04 10:23:22;;;;;;;0.80;0.40;;;;;;;17.05;71.38;101810.94;6148067;23;20484;-84
2023/10/04 10:26:17;;;;;;;0.80;0.50;;;;;;;16.86;72.43;101807.31;6151231;23;20503;-84
2023/10/04 10:28:49;;;;;;;0.80;0.50;;;;;;;16.69;73.32;101819.84;6151932;23;20342;-85
2023/10/04 10:35:08;;;;;;;0.80;0.40;;;;;;;16.67;74.14;101835.63;6090745;23;20563;-84
2023/10/04 10:37:54;;;;;;;1.07;0.70;;;;;;;16.60;74.00;101829.38;6066757;23;20507;-84
2023/10/04 10:41:41;;;;;;;0.80;0.50;;;;;;;16.72;74.80;101827.59;6084785;23;20402;-84
2023/10/04 10:44:33;;;;;;;0.80;0.50;;;;;;;16.75;74.50;101826.34;6067977;23;20437;-84
2023/10/04 10:47:15;;;;;;;1.93;0.80;;;;;;;16.77;74.51;101835.13;6086893;23;20427;-82
2023/10/04 10:49:55;;;;;;;0.80;0.50;;;;;;;16.78;74.63;101826.72;6126253;23;20421;-84
2023/10/04 10:52:41;;;;;;;1.03;0.80;;;;;;;16.73;74.33;101822.97;6152430;23;20401;-84
2023/10/04 10:55:18;;;;;;;0.80;0.50;;;;;;;16.92;73.88;101828.31;6151700;23;20403;-84
2023/10/04 10:57:49;;;;;;;0.80;0.40;;;;;;;16.91;73.07;101820.31;6151428;23;20405;-83
2023/10/04 11:00:28;;;;;;;0.80;0.50;;;;;;;17.12;72.21;101814.47;6152195;23;20458;-84
2023/10/04 11:02:57;;;;;;;0.97;0.70;;;;;;;17.42;72.15;101825.59;6152474;23;20420;-84
2023/10/04 11:05:27;;;;;;;0.80;0.40;;;;;;;17.52;69.92;101825.91;6135254;23;20431;-69
2023/10/04 11:07:58;;;;;;;1.00;0.60;;;;;;;18.02;68.55;101823.06;6125939;23;20365;-68
2023/10/04 11:10:27;;;;;;;0.90;0.40;;;;;;;18.15;66.46;101833.88;6125649;23;20779;-69
2023/10/04 11:12:58;;;;;;;0.90;0.50;;;;;;;17.80;67.35;101826.28;6094777;23;20814;-69
2023/10/04 11:15:27;;;;;;;0.90;0.50;;;;;;;17.89;67.58;101820.47;6096438;23;20351;-68
2023/10/04 11:17:56;;;;;;;0.90;0.50;;;;;;;17.46;67.95;101829.53;6096062;23;20447;-69
2023/10/04 11:20:28;;;;;;;0.93;0.50;;;;;;;17.43;68.79;101835.44;6096357;23;20391;-67
2023/10/04 11:22:58;;;;;;;0.90;0.50;;;;;;;17.35;68.18;101830.25;6094302;23;20431;-70
2023/10/04 11:25:27;;;;;;;2.70;1.27;;;;;;;17.58;69.35;101835.94;6095944;23;20376;-68
2023/10/04 11:27:56;;;;;;;1.00;0.50;;;;;;;17.35;67.26;101838.47;6096652;23;20369;-68
2023/10/04 11:30:26;;;;;;;0.90;0.40;;;;;;;17.27;68.55;101830.56;6096017;23;20382;-69
2023/10/04 11:32:58;;;;;;;0.90;0.40;;;;;;;17.58;68.19;101827.72;6096249;23;20404;-70
2023/10/04 11:35:37;;;;;;;0.80;0.40;;;;;;;17.90;66.26;101835.84;6096009;23;20355;-69
2023/10/04 11:38:15;;;;;;;0.90;0.40;;;;;;;18.06;66.24;101840.69;6096147;23;20390;-69
2023/10/04 11:40:48;;;;;;;0.90;0.40;;;;;;;18.10;64.13;101831.00;6096313;23;20380;-68
2023/10/04 11:43:17;;;;;;;1.03;0.53;;;;;;;18.08;65.24;101833.94;6096510;23;20372;-68